sensor_id;sensor_type;location;lat;lon;timestamp;temperature;humidity
65078;DHT22;51672;51.230;-2.322;2022-10-22T00:01:48;13.70;99.90
65078;DHT22;51672;51.230;-2.322;2022-10-22T00:05:31;13.60;99.90
65078;DHT22;51672;51.230;-2.322;2022-10-22T00:09:13;13.50;99.90
65078;DHT22;51672;51.230;-2.322;2022-10-22T00:12:55;13.40;99.90
65078;DHT22;51672;51.230;-2.322;2022-10-22T00:16:37;13.30;99.90
65078;DHT22;51672;51.230;-2.322;2022-10-22T00:20:20;13.30;99.90
65078;DHT22;51672;51.230;-2.322;2022-10-22T00:24:03;13.20;99.90
65078;DHT22;51672;51.230;-2.322;2022-10-22T00:27:45;13.30;99.90
65078;DHT22;51672;51.230;-2.322;2022-10-22T00:31:27;13.30;99.90
65078;DHT22;51672;51.230;-2.322;2022-10-22T00:35:10;13.30;99.90
65078;DHT22;51672;51.230;-2.322;2022-10-22T00:38:52;13.30;99.90
65078;DHT22;51672;51.230;-2.322;2022-10-22T00:42:34;13.30;99.90
65078;DHT22;51672;51.230;-2.322;2022-10-22T00:46:16;13.30;99.90
65078;DHT22;51672;51.230;-2.322;2022-10-22T00:49:59;13.30;99.90
65078;DHT22;51672;51.230;-2.322;2022-10-22T00:53:47;13.30;99.90
65078;DHT22;51672;51.230;-2.322;2022-10-22T00:57:31;13.30;99.90
65078;DHT22;51672;51.230;-2.322;2022-10-22T01:01:29;13.20;99.90
65078;DHT22;51672;51.230;-2.322;2022-10-22T01:05:12;13.20;99.90
65078;DHT22;51672;51.230;-2.322;2022-10-22T01:13:34;13.30;99.90
65078;DHT22;51672;51.230;-2.322;2022-10-22T01:25:10;13.60;99.90
65078;DHT22;51672;51.230;-2.322;2022-10-22T01:32:45;13.60;99.90
65078;DHT22;51672;51.230;-2.322;2022-10-22T01:36:33;13.60;99.90
65078;DHT22;51672;51.230;-2.322;2022-10-22T01:40:17;13.60;99.90
65078;DHT22;51672;51.230;-2.322;2022-10-22T01:44:00;13.70;99.90
65078;DHT22;51672;51.230;-2.322;2022-10-22T02:00:22;13.40;99.90
65078;DHT22;51672;51.230;-2.322;2022-10-22T02:04:21;13.40;99.90
65078;DHT22;51672;51.230;-2.322;2022-10-22T02:08:18;13.30;99.90
65078;DHT22;51672;51.230;-2.322;2022-10-22T02:12:05;13.20;99.90
65078;DHT22;51672;51.230;-2.322;2022-10-22T02:15:49;13.10;99.90
65078;DHT22;51672;51.230;-2.322;2022-10-22T02:19:35;13.10;99.90
65078;DHT22;51672;51.230;-2.322;2022-10-22T02:23:20;12.90;99.90
65078;DHT22;51672;51.230;-2.322;2022-10-22T02:27:11;12.80;99.90
65078;DHT22;51672;51.230;-2.322;2022-10-22T02:31:22;12.70;99.90
65078;DHT22;51672;51.230;-2.322;2022-10-22T02:35:05;12.60;99.90
65078;DHT22;51672;51.230;-2.322;2022-10-22T02:38:50;12.50;99.90
65078;DHT22;51672;51.230;-2.322;2022-10-22T02:42:32;12.40;99.90
65078;DHT22;51672;51.230;-2.322;2022-10-22T02:46:15;12.30;99.90
65078;DHT22;51672;51.230;-2.322;2022-10-22T02:49:57;12.20;99.90
65078;DHT22;51672;51.230;-2.322;2022-10-22T02:53:39;12.10;99.90
65078;DHT22;51672;51.230;-2.322;2022-10-22T02:57:21;12.00;99.90
65078;DHT22;51672;51.230;-2.322;2022-10-22T03:01:03;11.90;99.90
65078;DHT22;51672;51.230;-2.322;2022-10-22T03:04:45;11.80;99.90
65078;DHT22;51672;51.230;-2.322;2022-10-22T03:08:27;11.70;99.90
65078;DHT22;51672;51.230;-2.322;2022-10-22T03:12:09;11.70;99.90
65078;DHT22;51672;51.230;-2.322;2022-10-22T03:15:51;11.60;99.90
65078;DHT22;51672;51.230;-2.322;2022-10-22T03:19:33;11.50;99.90
65078;DHT22;51672;51.230;-2.322;2022-10-22T03:23:17;11.40;99.90
65078;DHT22;51672;51.230;-2.322;2022-10-22T03:27:00;11.40;99.90
65078;DHT22;51672;51.230;-2.322;2022-10-22T03:30:42;11.30;99.90
65078;DHT22;51672;51.230;-2.322;2022-10-22T03:34:24;11.20;99.90
65078;DHT22;51672;51.230;-2.322;2022-10-22T03:38:06;11.20;99.90
65078;DHT22;51672;51.230;-2.322;2022-10-22T03:41:49;11.10;99.90
65078;DHT22;51672;51.230;-2.322;2022-10-22T03:45:31;11.10;99.90
65078;DHT22;51672;51.230;-2.322;2022-10-22T03:49:13;11.00;99.90
65078;DHT22;51672;51.230;-2.322;2022-10-22T03:52:55;11.00;99.90
65078;DHT22;51672;51.230;-2.322;2022-10-22T03:56:38;11.00;99.90
65078;DHT22;51672;51.230;-2.322;2022-10-22T04:00:20;11.00;99.90
65078;DHT22;51672;51.230;-2.322;2022-10-22T04:04:02;11.00;99.90
65078;DHT22;51672;51.230;-2.322;2022-10-22T04:07:44;10.90;99.90
65078;DHT22;51672;51.230;-2.322;2022-10-22T04:11:26;10.90;99.90
65078;DHT22;51672;51.230;-2.322;2022-10-22T04:15:08;10.90;99.90
65078;DHT22;51672;51.230;-2.322;2022-10-22T04:18:50;10.80;99.90
65078;DHT22;51672;51.230;-2.322;2022-10-22T04:22:33;10.80;99.90
65078;DHT22;51672;51.230;-2.322;2022-10-22T04:26:16;10.80;99.90
65078;DHT22;51672;51.230;-2.322;2022-10-22T04:29:59;10.70;99.90
65078;DHT22;51672;51.230;-2.322;2022-10-22T04:33:41;10.70;99.90
65078;DHT22;51672;51.230;-2.322;2022-10-22T04:37:23;10.60;99.90
65078;DHT22;51672;51.230;-2.322;2022-10-22T04:41:17;10.60;99.90
65078;DHT22;51672;51.230;-2.322;2022-10-22T04:45:00;10.60;99.90
65078;DHT22;51672;51.230;-2.322;2022-10-22T04:48:43;10.60;99.90
65078;DHT22;51672;51.230;-2.322;2022-10-22T04:52:25;10.60;99.90
65078;DHT22;51672;51.230;-2.322;2022-10-22T04:56:16;10.70;99.90
65078;DHT22;51672;51.230;-2.322;2022-10-22T05:00:00;10.70;99.90
65078;DHT22;51672;51.230;-2.322;2022-10-22T05:03:42;10.70;99.90
65078;DHT22;51672;51.230;-2.322;2022-10-22T05:07:24;10.70;99.90
65078;DHT22;51672;51.230;-2.322;2022-10-22T05:11:18;10.70;99.90
65078;DHT22;51672;51.230;-2.322;2022-10-22T05:15:01;10.70;99.90
65078;DHT22;51672;51.230;-2.322;2022-10-22T05:18:43;10.70;99.90
65078;DHT22;51672;51.230;-2.322;2022-10-22T05:22:25;10.70;99.90
65078;DHT22;51672;51.230;-2.322;2022-10-22T05:26:08;10.70;99.90
65078;DHT22;51672;51.230;-2.322;2022-10-22T05:29:50;10.70;99.90
65078;DHT22;51672;51.230;-2.322;2022-10-22T05:33:33;10.70;99.90
65078;DHT22;51672;51.230;-2.322;2022-10-22T05:37:15;10.70;99.90
65078;DHT22;51672;51.230;-2.322;2022-10-22T05:41:10;10.80;99.90
65078;DHT22;51672;51.230;-2.322;2022-10-22T05:44:52;10.80;99.90
65078;DHT22;51672;51.230;-2.322;2022-10-22T05:48:35;10.80;99.90
65078;DHT22;51672;51.230;-2.322;2022-10-22T05:52:17;10.80;99.90
65078;DHT22;51672;51.230;-2.322;2022-10-22T05:56:01;10.70;99.90
65078;DHT22;51672;51.230;-2.322;2022-10-22T05:59:43;10.70;99.90
65078;DHT22;51672;51.230;-2.322;2022-10-22T06:03:25;10.70;99.90
65078;DHT22;51672;51.230;-2.322;2022-10-22T06:07:13;10.60;99.90
65078;DHT22;51672;51.230;-2.322;2022-10-22T06:10:56;10.60;99.90
65078;DHT22;51672;51.230;-2.322;2022-10-22T06:14:38;10.50;99.90
65078;DHT22;51672;51.230;-2.322;2022-10-22T06:18:20;10.50;99.90
65078;DHT22;51672;51.230;-2.322;2022-10-22T06:22:03;10.40;99.90
65078;DHT22;51672;51.230;-2.322;2022-10-22T06:25:55;10.40;99.90
65078;DHT22;51672;51.230;-2.322;2022-10-22T06:29:37;10.40;99.90
65078;DHT22;51672;51.230;-2.322;2022-10-22T06:33:19;10.30;99.90
65078;DHT22;51672;51.230;-2.322;2022-10-22T06:37:01;10.30;99.90
65078;DHT22;51672;51.230;-2.322;2022-10-22T06:40:43;10.20;99.90
65078;DHT22;51672;51.230;-2.322;2022-10-22T06:44:25;10.20;99.90
65078;DHT22;51672;51.230;-2.322;2022-10-22T06:48:07;10.10;99.90
65078;DHT22;51672;51.230;-2.322;2022-10-22T06:51:51;10.10;99.90
65078;DHT22;51672;51.230;-2.322;2022-10-22T06:55:34;10.10;99.90
65078;DHT22;51672;51.230;-2.322;2022-10-22T06:59:16;10.10;99.90
65078;DHT22;51672;51.230;-2.322;2022-10-22T07:02:58;10.10;99.90
65078;DHT22;51672;51.230;-2.322;2022-10-22T07:06:40;10.10;99.90
65078;DHT22;51672;51.230;-2.322;2022-10-22T07:10:22;10.10;99.90
65078;DHT22;51672;51.230;-2.322;2022-10-22T07:14:11;10.10;99.90
65078;DHT22;51672;51.230;-2.322;2022-10-22T07:17:53;10.10;99.90
65078;DHT22;51672;51.230;-2.322;2022-10-22T07:21:35;10.10;99.90
65078;DHT22;51672;51.230;-2.322;2022-10-22T07:25:17;10.20;99.90
65078;DHT22;51672;51.230;-2.322;2022-10-22T07:28:59;10.20;99.90
65078;DHT22;51672;51.230;-2.322;2022-10-22T07:32:41;10.20;99.90
65078;DHT22;51672;51.230;-2.322;2022-10-22T07:36:23;10.30;99.90
65078;DHT22;51672;51.230;-2.322;2022-10-22T07:40:05;10.40;99.90
65078;DHT22;51672;51.230;-2.322;2022-10-22T07:43:49;10.40;99.90
65078;DHT22;51672;51.230;-2.322;2022-10-22T07:47:37;10.60;99.90
65078;DHT22;51672;51.230;-2.322;2022-10-22T07:51:26;10.60;99.90
65078;DHT22;51672;51.230;-2.322;2022-10-22T07:55:09;10.70;99.90
65078;DHT22;51672;51.230;-2.322;2022-10-22T07:58:58;10.90;99.90
65078;DHT22;51672;51.230;-2.322;2022-10-22T08:02:41;11.10;99.90
65078;DHT22;51672;51.230;-2.322;2022-10-22T08:10:42;11.90;99.90
65078;DHT22;51672;51.230;-2.322;2022-10-22T08:14:38;12.50;99.90
65078;DHT22;51672;51.230;-2.322;2022-10-22T08:18:20;13.10;99.90
65078;DHT22;51672;51.230;-2.322;2022-10-22T08:22:02;13.70;99.90
65078;DHT22;51672;51.230;-2.322;2022-10-22T08:26:17;14.40;99.90
65078;DHT22;51672;51.230;-2.322;2022-10-22T08:29:59;15.10;99.90
65078;DHT22;51672;51.230;-2.322;2022-10-22T08:33:58;15.80;99.90
65078;DHT22;51672;51.230;-2.322;2022-10-22T08:37:40;16.60;99.90
65078;DHT22;51672;51.230;-2.322;2022-10-22T08:41:47;17.20;99.90
65078;DHT22;51672;51.230;-2.322;2022-10-22T08:49:57;18.40;99.90
65078;DHT22;51672;51.230;-2.322;2022-10-22T09:06:39;17.70;99.90
65078;DHT22;51672;51.230;-2.322;2022-10-22T09:10:32;17.30;99.90
65078;DHT22;51672;51.230;-2.322;2022-10-22T09:14:39;17.00;99.90
65078;DHT22;51672;51.230;-2.322;2022-10-22T09:27:25;16.10;99.90
65078;DHT22;51672;51.230;-2.322;2022-10-22T09:31:30;15.90;99.90
65078;DHT22;51672;51.230;-2.322;2022-10-22T09:35:13;16.00;99.90
65078;DHT22;51672;51.230;-2.322;2022-10-22T09:43:48;17.00;99.90
65078;DHT22;51672;51.230;-2.322;2022-10-22T09:47:39;17.80;99.90
65078;DHT22;51672;51.230;-2.322;2022-10-22T09:56:38;17.40;99.90
65078;DHT22;51672;51.230;-2.322;2022-10-22T10:00:32;17.10;99.90
65078;DHT22;51672;51.230;-2.322;2022-10-22T10:04:15;16.80;99.90
65078;DHT22;51672;51.230;-2.322;2022-10-22T10:12:33;16.90;99.90
65078;DHT22;51672;51.230;-2.322;2022-10-22T10:16:56;17.10;99.90
65078;DHT22;51672;51.230;-2.322;2022-10-22T10:48:15;18.00;99.90
65078;DHT22;51672;51.230;-2.322;2022-10-22T11:00:39;18.40;99.90
65078;DHT22;51672;51.230;-2.322;2022-10-22T11:09:36;18.60;99.90
65078;DHT22;51672;51.230;-2.322;2022-10-22T11:27:58;19.10;99.90
65078;DHT22;51672;51.230;-2.322;2022-10-22T11:32:08;19.00;99.90
65078;DHT22;51672;51.230;-2.322;2022-10-22T11:36:21;19.00;99.90
65078;DHT22;51672;51.230;-2.322;2022-10-22T11:44:30;19.40;99.90
65078;DHT22;51672;51.230;-2.322;2022-10-22T12:01:23;19.40;99.90
65078;DHT22;51672;51.230;-2.322;2022-10-22T12:09:14;19.30;99.90
65078;DHT22;51672;51.230;-2.322;2022-10-22T12:17:11;18.90;99.90
65078;DHT22;51672;51.230;-2.322;2022-10-22T12:21:21;18.50;99.90
65078;DHT22;51672;51.230;-2.322;2022-10-22T12:25:24;18.20;99.90
65078;DHT22;51672;51.230;-2.322;2022-10-22T12:29:24;18.00;99.90
65078;DHT22;51672;51.230;-2.322;2022-10-22T12:37:28;18.00;99.90
65078;DHT22;51672;51.230;-2.322;2022-10-22T12:41:57;18.00;99.90
65078;DHT22;51672;51.230;-2.322;2022-10-22T12:49:50;18.00;99.90
65078;DHT22;51672;51.230;-2.322;2022-10-22T12:54:22;18.00;99.90
65078;DHT22;51672;51.230;-2.322;2022-10-22T13:02:32;18.00;99.90
65078;DHT22;51672;51.230;-2.322;2022-10-22T13:11:33;18.10;99.90
65078;DHT22;51672;51.230;-2.322;2022-10-22T13:23:36;18.30;99.90
65078;DHT22;51672;51.230;-2.322;2022-10-22T13:27:19;18.20;99.90
65078;DHT22;51672;51.230;-2.322;2022-10-22T13:34:55;18.30;99.90
65078;DHT22;51672;51.230;-2.322;2022-10-22T13:39:23;18.40;99.90
65078;DHT22;51672;51.230;-2.322;2022-10-22T13:43:05;18.40;99.90
65078;DHT22;51672;51.230;-2.322;2022-10-22T13:46:58;18.40;99.90
65078;DHT22;51672;51.230;-2.322;2022-10-22T13:50:41;18.40;99.90
65078;DHT22;51672;51.230;-2.322;2022-10-22T13:55:12;18.40;99.90
65078;DHT22;51672;51.230;-2.322;2022-10-22T13:59:42;18.40;99.90
65078;DHT22;51672;51.230;-2.322;2022-10-22T14:07:32;18.50;99.90
65078;DHT22;51672;51.230;-2.322;2022-10-22T14:11:16;18.40;99.90
65078;DHT22;51672;51.230;-2.322;2022-10-22T14:15:18;18.40;99.90
65078;DHT22;51672;51.230;-2.322;2022-10-22T14:19:12;18.30;99.90
65078;DHT22;51672;51.230;-2.322;2022-10-22T14:23:37;18.30;99.90
65078;DHT22;51672;51.230;-2.322;2022-10-22T14:27:30;18.30;99.90
65078;DHT22;51672;51.230;-2.322;2022-10-22T14:31:13;18.30;99.90
65078;DHT22;51672;51.230;-2.322;2022-10-22T14:35:23;18.20;99.90
65078;DHT22;51672;51.230;-2.322;2022-10-22T14:39:06;18.30;99.90
65078;DHT22;51672;51.230;-2.322;2022-10-22T14:43:21;18.30;99.90
65078;DHT22;51672;51.230;-2.322;2022-10-22T14:47:14;18.30;99.90
65078;DHT22;51672;51.230;-2.322;2022-10-22T14:51:29;18.40;99.90
65078;DHT22;51672;51.230;-2.322;2022-10-22T14:55:41;18.40;99.90
65078;DHT22;51672;51.230;-2.322;2022-10-22T14:59:40;18.40;99.90
65078;DHT22;51672;51.230;-2.322;2022-10-22T15:08:22;18.20;99.90
65078;DHT22;51672;51.230;-2.322;2022-10-22T15:12:04;18.10;99.90
65078;DHT22;51672;51.230;-2.322;2022-10-22T15:15:57;18.00;99.90
65078;DHT22;51672;51.230;-2.322;2022-10-22T15:19:40;17.90;99.90
65078;DHT22;51672;51.230;-2.322;2022-10-22T15:27:50;17.80;99.90
65078;DHT22;51672;51.230;-2.322;2022-10-22T15:31:54;17.70;99.90
65078;DHT22;51672;51.230;-2.322;2022-10-22T15:35:41;17.70;99.90
65078;DHT22;51672;51.230;-2.322;2022-10-22T15:39:55;17.70;99.90
65078;DHT22;51672;51.230;-2.322;2022-10-22T15:43:38;17.60;99.90
65078;DHT22;51672;51.230;-2.322;2022-10-22T15:47:29;17.60;99.90
65078;DHT22;51672;51.230;-2.322;2022-10-22T15:51:32;17.50;99.90
65078;DHT22;51672;51.230;-2.322;2022-10-22T15:55:32;17.50;99.90
65078;DHT22;51672;51.230;-2.322;2022-10-22T15:59:25;17.40;99.90
65078;DHT22;51672;51.230;-2.322;2022-10-22T16:03:25;17.40;99.90
65078;DHT22;51672;51.230;-2.322;2022-10-22T16:07:14;17.30;99.90
65078;DHT22;51672;51.230;-2.322;2022-10-22T16:11:29;17.30;99.90
65078;DHT22;51672;51.230;-2.322;2022-10-22T16:15:49;17.20;99.90
65078;DHT22;51672;51.230;-2.322;2022-10-22T16:19:38;17.10;99.90
65078;DHT22;51672;51.230;-2.322;2022-10-22T16:23:52;17.10;99.90
65078;DHT22;51672;51.230;-2.322;2022-10-22T16:28:22;17.00;99.90
65078;DHT22;51672;51.230;-2.322;2022-10-22T16:36:15;16.80;99.90
65078;DHT22;51672;51.230;-2.322;2022-10-22T16:40:35;16.60;99.90
65078;DHT22;51672;51.230;-2.322;2022-10-22T16:44:24;16.50;99.90
65078;DHT22;51672;51.230;-2.322;2022-10-22T16:48:38;16.50;99.90
65078;DHT22;51672;51.230;-2.322;2022-10-22T16:52:59;16.40;99.90
65078;DHT22;51672;51.230;-2.322;2022-10-22T16:56:48;16.30;99.90
65078;DHT22;51672;51.230;-2.322;2022-10-22T17:00:30;16.30;99.90
65078;DHT22;51672;51.230;-2.322;2022-10-22T17:04:12;16.20;99.90
65078;DHT22;51672;51.230;-2.322;2022-10-22T17:07:54;16.20;99.90
65078;DHT22;51672;51.230;-2.322;2022-10-22T17:11:36;16.10;99.90
65078;DHT22;51672;51.230;-2.322;2022-10-22T17:15:23;16.10;99.90
65078;DHT22;51672;51.230;-2.322;2022-10-22T17:19:05;16.10;99.90
65078;DHT22;51672;51.230;-2.322;2022-10-22T17:22:48;16.00;99.90
65078;DHT22;51672;51.230;-2.322;2022-10-22T17:26:30;16.00;99.90
65078;DHT22;51672;51.230;-2.322;2022-10-22T17:30:18;16.00;99.90
65078;DHT22;51672;51.230;-2.322;2022-10-22T17:34:09;15.90;99.90
65078;DHT22;51672;51.230;-2.322;2022-10-22T17:37:51;15.70;99.90
65078;DHT22;51672;51.230;-2.322;2022-10-22T17:41:35;15.70;99.90
65078;DHT22;51672;51.230;-2.322;2022-10-22T17:45:17;15.70;99.90
65078;DHT22;51672;51.230;-2.322;2022-10-22T17:49:02;15.60;99.90
65078;DHT22;51672;51.230;-2.322;2022-10-22T17:52:44;15.50;99.90
65078;DHT22;51672;51.230;-2.322;2022-10-22T17:56:27;15.50;99.90
65078;DHT22;51672;51.230;-2.322;2022-10-22T18:00:12;15.40;99.90
65078;DHT22;51672;51.230;-2.322;2022-10-22T18:03:58;15.40;99.90
65078;DHT22;51672;51.230;-2.322;2022-10-22T18:07:40;15.30;99.90
65078;DHT22;51672;51.230;-2.322;2022-10-22T18:11:25;15.30;99.90
65078;DHT22;51672;51.230;-2.322;2022-10-22T18:15:07;15.30;99.90
65078;DHT22;51672;51.230;-2.322;2022-10-22T18:18:51;15.20;99.90
65078;DHT22;51672;51.230;-2.322;2022-10-22T18:22:34;15.20;99.90
65078;DHT22;51672;51.230;-2.322;2022-10-22T18:26:17;15.20;99.90
65078;DHT22;51672;51.230;-2.322;2022-10-22T18:30:04;15.10;99.90
65078;DHT22;51672;51.230;-2.322;2022-10-22T18:33:46;15.10;99.90
65078;DHT22;51672;51.230;-2.322;2022-10-22T18:37:28;15.10;99.90
65078;DHT22;51672;51.230;-2.322;2022-10-22T18:41:12;15.10;99.90
65078;DHT22;51672;51.230;-2.322;2022-10-22T18:44:54;15.10;99.90
65078;DHT22;51672;51.230;-2.322;2022-10-22T18:48:36;15.10;99.90
65078;DHT22;51672;51.230;-2.322;2022-10-22T18:52:18;15.10;99.90
65078;DHT22;51672;51.230;-2.322;2022-10-22T18:56:04;15.00;99.90
65078;DHT22;51672;51.230;-2.322;2022-10-22T18:59:46;15.00;99.90
65078;DHT22;51672;51.230;-2.322;2022-10-22T19:03:27;15.00;99.90
65078;DHT22;51672;51.230;-2.322;2022-10-22T19:07:10;14.90;99.90
65078;DHT22;51672;51.230;-2.322;2022-10-22T19:10:52;14.90;99.90
65078;DHT22;51672;51.230;-2.322;2022-10-22T19:14:35;14.90;99.90
65078;DHT22;51672;51.230;-2.322;2022-10-22T19:18:17;14.90;99.90
65078;DHT22;51672;51.230;-2.322;2022-10-22T19:21:59;14.90;99.90
65078;DHT22;51672;51.230;-2.322;2022-10-22T19:25:41;14.80;99.90
65078;DHT22;51672;51.230;-2.322;2022-10-22T19:29:23;14.80;99.90
65078;DHT22;51672;51.230;-2.322;2022-10-22T19:33:05;14.80;99.90
65078;DHT22;51672;51.230;-2.322;2022-10-22T19:36:48;14.80;99.90
65078;DHT22;51672;51.230;-2.322;2022-10-22T19:40:32;14.80;99.90
65078;DHT22;51672;51.230;-2.322;2022-10-22T19:44:14;14.80;99.90
65078;DHT22;51672;51.230;-2.322;2022-10-22T19:47:56;14.80;99.90
65078;DHT22;51672;51.230;-2.322;2022-10-22T19:51:38;14.80;99.90
65078;DHT22;51672;51.230;-2.322;2022-10-22T19:55:20;14.70;99.90
65078;DHT22;51672;51.230;-2.322;2022-10-22T19:59:03;14.70;99.90
65078;DHT22;51672;51.230;-2.322;2022-10-22T20:02:45;14.70;99.90
65078;DHT22;51672;51.230;-2.322;2022-10-22T20:06:28;14.70;99.90
65078;DHT22;51672;51.230;-2.322;2022-10-22T20:10:10;14.70;99.90
65078;DHT22;51672;51.230;-2.322;2022-10-22T20:13:53;14.70;99.90
65078;DHT22;51672;51.230;-2.322;2022-10-22T20:17:35;14.70;99.90
65078;DHT22;51672;51.230;-2.322;2022-10-22T20:21:18;14.70;99.90
65078;DHT22;51672;51.230;-2.322;2022-10-22T20:25:00;14.70;99.90
65078;DHT22;51672;51.230;-2.322;2022-10-22T20:28:42;14.70;99.90
65078;DHT22;51672;51.230;-2.322;2022-10-22T20:32:24;14.70;99.90
65078;DHT22;51672;51.230;-2.322;2022-10-22T20:36:17;14.80;99.90
65078;DHT22;51672;51.230;-2.322;2022-10-22T20:39:59;14.80;99.90
65078;DHT22;51672;51.230;-2.322;2022-10-22T20:43:45;14.90;99.90
65078;DHT22;51672;51.230;-2.322;2022-10-22T20:47:27;14.90;99.90
65078;DHT22;51672;51.230;-2.322;2022-10-22T20:51:29;14.90;99.90
65078;DHT22;51672;51.230;-2.322;2022-10-22T20:55:12;14.90;99.90
65078;DHT22;51672;51.230;-2.322;2022-10-22T20:59:00;14.90;99.90
65078;DHT22;51672;51.230;-2.322;2022-10-22T21:02:46;14.90;99.90
65078;DHT22;51672;51.230;-2.322;2022-10-22T21:06:28;14.80;99.90
65078;DHT22;51672;51.230;-2.322;2022-10-22T21:10:10;14.80;99.90
65078;DHT22;51672;51.230;-2.322;2022-10-22T21:13:52;14.80;99.90
65078;DHT22;51672;51.230;-2.322;2022-10-22T21:17:34;14.80;99.90
65078;DHT22;51672;51.230;-2.322;2022-10-22T21:21:16;14.80;99.90
65078;DHT22;51672;51.230;-2.322;2022-10-22T21:24:58;14.80;99.90
65078;DHT22;51672;51.230;-2.322;2022-10-22T21:28:40;14.80;99.90
65078;DHT22;51672;51.230;-2.322;2022-10-22T21:32:22;14.80;99.90
65078;DHT22;51672;51.230;-2.322;2022-10-22T21:36:04;14.80;99.90
65078;DHT22;51672;51.230;-2.322;2022-10-22T21:39:47;14.70;99.90
65078;DHT22;51672;51.230;-2.322;2022-10-22T21:43:29;14.70;99.90
65078;DHT22;51672;51.230;-2.322;2022-10-22T21:47:11;14.70;99.90
65078;DHT22;51672;51.230;-2.322;2022-10-22T21:50:53;14.60;99.90
65078;DHT22;51672;51.230;-2.322;2022-10-22T21:54:35;14.60;99.90
65078;DHT22;51672;51.230;-2.322;2022-10-22T21:58:18;14.50;99.90
65078;DHT22;51672;51.230;-2.322;2022-10-22T22:02:00;14.40;99.90
65078;DHT22;51672;51.230;-2.322;2022-10-22T22:05:46;14.40;99.90
65078;DHT22;51672;51.230;-2.322;2022-10-22T22:09:28;14.30;99.90
65078;DHT22;51672;51.230;-2.322;2022-10-22T22:13:10;14.30;99.90
65078;DHT22;51672;51.230;-2.322;2022-10-22T22:16:52;14.40;99.90
65078;DHT22;51672;51.230;-2.322;2022-10-22T22:20:35;14.40;99.90
65078;DHT22;51672;51.230;-2.322;2022-10-22T22:24:17;14.40;99.90
65078;DHT22;51672;51.230;-2.322;2022-10-22T22:27:59;14.40;99.90
65078;DHT22;51672;51.230;-2.322;2022-10-22T22:31:41;14.50;99.90
65078;DHT22;51672;51.230;-2.322;2022-10-22T22:35:24;14.60;99.90
65078;DHT22;51672;51.230;-2.322;2022-10-22T22:39:09;14.50;99.90
65078;DHT22;51672;51.230;-2.322;2022-10-22T22:42:51;14.50;99.90
65078;DHT22;51672;51.230;-2.322;2022-10-22T22:46:33;14.50;99.90
65078;DHT22;51672;51.230;-2.322;2022-10-22T22:50:15;14.50;99.90
65078;DHT22;51672;51.230;-2.322;2022-10-22T22:53:58;14.50;99.90
65078;DHT22;51672;51.230;-2.322;2022-10-22T22:57:40;14.50;99.90
65078;DHT22;51672;51.230;-2.322;2022-10-22T23:01:24;14.50;99.90
65078;DHT22;51672;51.230;-2.322;2022-10-22T23:05:07;14.60;99.90
65078;DHT22;51672;51.230;-2.322;2022-10-22T23:08:50;14.60;99.90
65078;DHT22;51672;51.230;-2.322;2022-10-22T23:12:32;14.60;99.90
65078;DHT22;51672;51.230;-2.322;2022-10-22T23:16:19;14.60;99.90
65078;DHT22;51672;51.230;-2.322;2022-10-22T23:20:02;14.60;99.90
65078;DHT22;51672;51.230;-2.322;2022-10-22T23:23:45;14.60;99.90
65078;DHT22;51672;51.230;-2.322;2022-10-22T23:27:27;14.60;99.90
65078;DHT22;51672;51.230;-2.322;2022-10-22T23:31:12;14.60;99.90
65078;DHT22;51672;51.230;-2.322;2022-10-22T23:34:54;14.70;99.90
65078;DHT22;51672;51.230;-2.322;2022-10-22T23:38:37;14.60;99.90
65078;DHT22;51672;51.230;-2.322;2022-10-22T23:42:19;14.60;99.90
65078;DHT22;51672;51.230;-2.322;2022-10-22T23:46:05;14.60;99.90
65078;DHT22;51672;51.230;-2.322;2022-10-22T23:49:47;14.60;99.90
65078;DHT22;51672;51.230;-2.322;2022-10-22T23:53:29;14.60;99.90
65078;DHT22;51672;51.230;-2.322;2022-10-22T23:57:11;14.60;99.90
